createdAt,value
2024-01-06T00:01:14.893Z,5.13
2024-01-06T00:03:41.592Z,5.20
2024-01-06T00:06:08.352Z,5.38
2024-01-06T00:08:34.977Z,5.47
2024-01-06T00:11:03.996Z,4.85
2024-01-06T00:13:30.923Z,5.30
2024-01-06T00:15:57.848Z,5.60
2024-01-06T00:18:24.578Z,5.90
2024-01-06T00:20:51.522Z,5.70
2024-01-06T00:23:18.171Z,6.00
2024-01-06T00:25:44.699Z,5.55
2024-01-06T00:28:11.281Z,6.25
2024-01-06T00:30:37.994Z,5.97
2024-01-06T00:33:04.985Z,6.47
2024-01-06T00:35:31.603Z,5.93
2024-01-06T00:37:59.334Z,6.07
2024-01-06T00:40:25.937Z,6.00
2024-01-06T00:42:52.550Z,5.78
2024-01-06T00:45:19.651Z,6.05
2024-01-06T00:47:46.587Z,5.85
2024-01-06T00:50:14.077Z,6.55
2024-01-06T00:52:40.613Z,6.38
2024-01-06T00:55:07.390Z,6.75
2024-01-06T00:57:34.111Z,6.47
2024-01-06T01:00:00.789Z,6.07
2024-01-06T01:02:27.504Z,6.60
2024-01-06T01:04:54.577Z,6.13
2024-01-06T01:07:21.294Z,6.03
2024-01-06T01:09:47.928Z,6.70
2024-01-06T01:12:14.588Z,7.00
2024-01-06T01:14:41.219Z,6.40
2024-01-06T01:17:07.817Z,7.30
2024-01-06T01:19:34.526Z,7.63
2024-01-06T01:22:01.694Z,8.32
2024-01-06T01:24:28.456Z,7.53
2024-01-06T01:26:55.046Z,7.40
2024-01-06T01:29:22.568Z,7.03
2024-01-06T01:31:49.392Z,7.47
2024-01-06T01:34:16.242Z,7.38
2024-01-06T01:36:43.053Z,8.18
2024-01-06T01:39:09.828Z,6.43
2024-01-06T01:41:36.477Z,8.52
2024-01-06T01:44:03.617Z,8.15
2024-01-06T01:46:31.613Z,7.72
2024-01-06T01:49:00.767Z,8.43
2024-01-06T01:51:37.365Z,7.30
2024-01-06T01:54:06.519Z,7.65
2024-01-06T01:56:36.459Z,7.63
2024-01-06T01:59:10.524Z,5.10
2024-01-06T02:01:37.573Z,7.63
2024-01-06T02:04:04.759Z,8.25
2024-01-06T02:06:31.569Z,7.22
2024-01-06T02:08:58.989Z,6.57
2024-01-06T02:11:25.595Z,7.65
2024-01-06T02:13:52.167Z,7.47
2024-01-06T02:16:18.769Z,9.40
2024-01-06T02:18:45.751Z,6.28
2024-01-06T02:21:12.647Z,6.35
2024-01-06T02:23:39.351Z,7.82
2024-01-06T02:26:05.990Z,7.07
2024-01-06T02:28:32.650Z,8.48
2024-01-06T02:30:59.319Z,6.90
2024-01-06T02:33:26.143Z,7.60
2024-01-06T02:35:52.883Z,7.97
2024-01-06T02:38:19.478Z,7.93
2024-01-06T02:40:46.039Z,7.95
2024-01-06T02:43:12.729Z,7.97
2024-01-06T02:45:39.289Z,5.88
2024-01-06T02:48:06.273Z,7.47
2024-01-06T02:50:32.885Z,8.63
2024-01-06T02:52:59.440Z,7.80
2024-01-06T02:55:26.016Z,6.40
2024-01-06T02:57:52.654Z,8.85
2024-01-06T03:00:19.467Z,7.47
2024-01-06T03:02:46.093Z,6.70
2024-01-06T03:05:12.942Z,7.03
2024-01-06T03:07:39.567Z,7.90
2024-01-06T03:10:06.514Z,7.40
2024-01-06T03:12:33.203Z,8.43
2024-01-06T03:14:59.874Z,7.70
2024-01-06T03:17:26.591Z,3.67
2024-01-06T03:19:53.186Z,9.55
2024-01-06T03:22:19.816Z,6.70
2024-01-06T03:24:46.566Z,6.30
2024-01-06T03:27:14.058Z,5.15
2024-01-06T03:29:40.959Z,5.28
2024-01-06T03:32:07.946Z,4.93
2024-01-06T03:34:34.722Z,4.30
2024-01-06T03:37:01.372Z,4.25
2024-01-06T03:39:27.936Z,5.03
2024-01-06T03:41:54.915Z,4.38
2024-01-06T03:44:21.533Z,3.30
2024-01-06T03:46:48.076Z,3.47
2024-01-06T03:49:14.711Z,5.22
2024-01-06T03:51:41.510Z,4.60
2024-01-06T03:54:08.213Z,4.82
2024-01-06T03:56:34.782Z,4.07
2024-01-06T03:59:01.323Z,4.03
2024-01-06T04:01:29.391Z,4.15
2024-01-06T04:03:56.132Z,4.20
2024-01-06T04:06:22.856Z,4.78
2024-01-06T04:08:49.521Z,4.05
2024-01-06T04:11:16.137Z,4.72
2024-01-06T04:13:42.674Z,4.70
2024-01-06T04:16:09.255Z,4.82
2024-01-06T04:18:35.904Z,4.22
2024-01-06T04:21:02.672Z,5.03
2024-01-06T04:23:29.227Z,3.90
2024-01-06T04:25:55.762Z,5.22
2024-01-06T04:28:22.474Z,3.60
2024-01-06T04:30:49.738Z,4.63
2024-01-06T04:33:16.537Z,3.83
2024-01-06T04:35:43.244Z,4.00
2024-01-06T04:38:10.299Z,4.10
2024-01-06T04:40:37.069Z,3.65
2024-01-06T04:43:04.639Z,4.13
2024-01-06T04:45:31.311Z,4.60
2024-01-06T04:47:57.909Z,4.30
2024-01-06T04:50:24.559Z,4.32
2024-01-06T04:52:51.091Z,5.43
2024-01-06T04:55:17.825Z,4.97
2024-01-06T04:57:44.461Z,4.57
2024-01-06T05:00:11.858Z,5.03
2024-01-06T05:02:38.505Z,4.85
2024-01-06T05:05:05.279Z,4.70
2024-01-06T05:07:31.850Z,4.90
2024-01-06T05:09:58.369Z,3.97
2024-01-06T05:12:24.957Z,4.93
2024-01-06T05:14:51.489Z,4.35
2024-01-06T05:17:18.127Z,4.50
2024-01-06T05:19:44.668Z,3.97
2024-01-06T05:22:11.857Z,4.82
2024-01-06T05:24:38.616Z,4.15
2024-01-06T05:27:05.663Z,3.90
2024-01-06T05:29:32.238Z,4.90
2024-01-06T05:31:59.157Z,3.13
2024-01-06T05:34:25.880Z,4.45
2024-01-06T05:36:52.843Z,3.38
2024-01-06T05:39:19.553Z,4.15
2024-01-06T05:41:46.120Z,4.13
2024-01-06T05:44:12.701Z,4.60
2024-01-06T05:46:39.228Z,3.92
2024-01-06T05:49:05.964Z,4.22
2024-01-06T05:51:32.745Z,4.88
2024-01-06T05:53:59.276Z,4.80
2024-01-06T05:56:26.879Z,4.50
2024-01-06T05:58:54.429Z,6.38
2024-01-06T06:01:23.625Z,5.03
2024-01-06T06:03:51.768Z,4.90
2024-01-06T06:06:19.175Z,5.20
2024-01-06T06:08:46.181Z,4.97
2024-01-06T06:11:12.848Z,5.72
2024-01-06T06:13:41.866Z,5.43
2024-01-06T06:16:10.900Z,5.30
2024-01-06T06:18:37.707Z,4.60
2024-01-06T06:21:05.187Z,5.07
2024-01-06T06:23:32.667Z,4.75
2024-01-06T06:26:00.473Z,6.70
2024-01-06T06:28:27.656Z,5.85
2024-01-06T06:30:54.761Z,5.70
2024-01-06T06:33:21.772Z,6.10
2024-01-06T06:35:48.493Z,5.60
2024-01-06T06:38:15.069Z,5.10
2024-01-06T06:40:41.665Z,5.10
2024-01-06T06:43:09.351Z,3.53
2024-01-06T06:45:36.328Z,5.32
2024-01-06T06:48:03.306Z,4.70
2024-01-06T06:50:30.138Z,4.50
2024-01-06T06:52:56.735Z,5.15
2024-01-06T06:55:23.333Z,4.10
2024-01-06T06:57:50.584Z,5.35
2024-01-06T07:00:18.343Z,5.53
2024-01-06T07:02:45.022Z,5.60
2024-01-06T07:05:11.604Z,5.32
2024-01-06T07:07:38.969Z,5.65
2024-01-06T07:10:06.653Z,5.95
2024-01-06T07:12:33.589Z,5.43
2024-01-06T07:15:00.286Z,6.13
2024-01-06T07:17:26.867Z,5.57
2024-01-06T07:19:55.021Z,5.88
2024-01-06T07:22:21.879Z,5.60
2024-01-06T07:24:48.463Z,5.65
2024-01-06T07:27:16.257Z,6.30
2024-01-06T07:29:43.065Z,5.35
2024-01-06T07:32:09.594Z,5.97
2024-01-06T07:34:36.314Z,5.15
2024-01-06T07:37:03.050Z,6.13
2024-01-06T07:39:29.640Z,5.18
2024-01-06T07:41:56.260Z,3.78
2024-01-06T07:44:25.888Z,5.03
2024-01-06T07:46:53.917Z,5.13
2024-01-06T07:49:20.716Z,4.13
2024-01-06T07:51:47.468Z,4.95
2024-01-06T07:54:14.061Z,4.88
2024-01-06T07:56:40.636Z,5.20
2024-01-06T07:59:07.369Z,5.95
2024-01-06T08:01:34.025Z,5.28
2024-01-06T08:04:01.334Z,5.32
2024-01-06T08:06:28.464Z,5.60
2024-01-06T08:08:56.092Z,6.10
2024-01-06T08:11:22.812Z,3.40
2024-01-06T08:13:49.413Z,4.85
2024-01-06T08:16:15.999Z,6.15
2024-01-06T08:18:42.643Z,5.75
2024-01-06T08:21:09.287Z,6.68
2024-01-06T08:23:35.882Z,7.00
2024-01-06T08:26:02.466Z,8.23
2024-01-06T08:28:29.102Z,7.90
2024-01-06T08:30:55.919Z,6.65
2024-01-06T08:33:22.695Z,7.40
2024-01-06T08:35:49.687Z,8.43
2024-01-06T08:38:16.431Z,7.68
2024-01-06T08:40:43.117Z,8.18
2024-01-06T08:43:10.536Z,7.80
2024-01-06T08:45:37.149Z,5.88
2024-01-06T08:48:04.109Z,7.60
2024-01-06T08:50:30.698Z,6.53
2024-01-06T08:52:57.243Z,8.95
2024-01-06T08:55:23.901Z,6.75
2024-01-06T08:57:50.465Z,6.70
2024-01-06T09:00:18.575Z,9.02
2024-01-06T09:02:45.808Z,9.30
2024-01-06T09:05:12.502Z,8.85
2024-01-06T09:07:39.083Z,4.60
2024-01-06T09:10:05.964Z,7.60
2024-01-06T09:12:32.710Z,7.25
2024-01-06T09:14:59.324Z,6.78
2024-01-06T09:17:25.897Z,7.43
2024-01-06T09:19:55.016Z,7.45
2024-01-06T09:22:21.689Z,7.20
2024-01-06T09:24:48.330Z,7.00
2024-01-06T09:27:16.144Z,6.18
2024-01-06T09:29:42.921Z,6.15
2024-01-06T09:32:09.571Z,9.73
2024-01-06T09:34:40.086Z,9.98
2024-01-06T09:37:07.063Z,8.85
2024-01-06T09:39:33.830Z,8.50
2024-01-06T09:42:00.548Z,5.55
2024-01-06T09:44:27.424Z,9.13
2024-01-06T09:46:58.885Z,9.00
2024-01-06T09:49:29.560Z,7.57
2024-01-06T09:52:00.439Z,8.75
2024-01-06T09:54:31.081Z,9.20
2024-01-06T09:56:57.816Z,7.90
2024-01-06T09:59:24.773Z,7.13
2024-01-06T10:01:51.613Z,6.82
2024-01-06T10:04:21.546Z,6.90
2024-01-06T10:06:50.746Z,7.93
2024-01-06T10:09:17.371Z,8.48
2024-01-06T10:11:44.319Z,9.35
2024-01-06T10:14:11.148Z,4.63
2024-01-06T10:16:37.761Z,9.20
2024-01-06T10:19:05.248Z,7.50
2024-01-06T10:21:33.270Z,7.40
2024-01-06T10:24:01.138Z,9.85
2024-01-06T10:26:28.066Z,7.80
2024-01-06T10:28:54.720Z,7.30
2024-01-06T10:31:21.477Z,5.07
2024-01-06T10:33:49.694Z,7.20
2024-01-06T10:36:17.738Z,6.63
2024-01-06T10:38:46.110Z,6.38
2024-01-06T10:41:15.796Z,5.53
2024-01-06T10:43:44.587Z,6.97
2024-01-06T10:46:12.315Z,5.28
2024-01-06T10:48:44.275Z,5.90
2024-01-06T10:51:14.735Z,6.00
2024-01-06T10:53:42.667Z,5.22
2024-01-06T10:56:11.603Z,7.47
2024-01-06T10:58:43.955Z,6.57
2024-01-06T11:01:11.505Z,6.22
2024-01-06T11:03:39.410Z,5.90
2024-01-06T11:06:08.652Z,5.07
2024-01-06T11:08:44.244Z,5.07
2024-01-06T11:11:10.889Z,4.70
2024-01-06T11:13:39.542Z,6.57
2024-01-06T11:16:07.455Z,5.68
2024-01-06T11:18:36.801Z,5.78
2024-01-06T11:21:13.948Z,3.53
2024-01-06T11:23:41.980Z,5.07
2024-01-06T11:26:08.550Z,6.35
2024-01-06T11:28:48.758Z,6.97
2024-01-06T11:31:15.598Z,5.72
2024-01-06T11:33:50.335Z,6.55
2024-01-06T11:36:17.444Z,5.43
2024-01-06T11:38:47.489Z,6.90
2024-01-06T11:41:50.588Z,6.38
2024-01-06T11:44:22.940Z,5.30
2024-01-06T11:46:53.182Z,9.18
2024-01-06T11:49:22.244Z,7.78
2024-01-06T11:51:48.991Z,7.65
2024-01-06T11:54:15.775Z,10.55
2024-01-06T11:56:42.754Z,8.13
2024-01-06T11:59:09.292Z,7.88
2024-01-06T12:01:39.806Z,8.27
2024-01-06T12:04:07.426Z,7.53
2024-01-06T12:06:35.190Z,9.05
2024-01-06T12:09:08.668Z,9.23
2024-01-06T12:11:35.330Z,8.95
2024-01-06T12:14:02.184Z,9.75
2024-01-06T12:16:28.934Z,8.38
2024-01-06T12:18:56.679Z,7.85
2024-01-06T12:21:26.681Z,8.18
2024-01-06T12:23:53.332Z,8.95
2024-01-06T12:26:20.753Z,8.32
2024-01-06T12:28:49.688Z,8.88
2024-01-06T12:31:16.938Z,7.53
2024-01-06T12:33:43.750Z,9.55
2024-01-06T12:36:21.121Z,9.48
2024-01-06T12:38:53.347Z,4.38
2024-01-06T12:41:19.895Z,7.10
2024-01-06T12:43:46.446Z,11.80
2024-01-06T12:46:13.014Z,5.95
2024-01-06T12:48:39.861Z,9.20
2024-01-06T12:51:06.530Z,8.35
2024-01-06T12:53:33.154Z,8.32
2024-01-06T12:55:59.750Z,7.32
2024-01-06T12:58:26.361Z,7.05
2024-01-06T13:00:53.050Z,7.63
2024-01-06T13:03:19.766Z,6.47
2024-01-06T13:05:46.573Z,5.25
2024-01-06T13:08:13.128Z,6.05
2024-01-06T13:10:39.704Z,4.43
2024-01-06T13:13:06.659Z,5.80
2024-01-06T13:15:33.447Z,5.50
2024-01-06T13:18:00.179Z,5.72
2024-01-06T13:20:26.793Z,5.10
2024-01-06T13:22:53.368Z,5.68
2024-01-06T13:25:21.133Z,3.78
2024-01-06T13:27:47.779Z,4.28
2024-01-06T13:30:18.727Z,6.20
2024-01-06T13:32:45.872Z,4.95
2024-01-06T13:35:13.065Z,5.32
2024-01-06T13:37:40.064Z,4.03
2024-01-06T13:40:08.412Z,5.18
2024-01-06T13:42:36.090Z,6.38
2024-01-06T13:45:04.925Z,5.30
2024-01-06T13:47:31.698Z,3.60
2024-01-06T13:49:59.048Z,6.30
2024-01-06T13:52:25.835Z,5.00
2024-01-06T13:54:53.080Z,5.68
2024-01-06T13:57:19.783Z,3.55
2024-01-06T13:59:46.382Z,4.35
2024-01-06T14:02:12.986Z,4.78
2024-01-06T14:04:40.067Z,5.53
2024-01-06T14:07:06.884Z,5.57
2024-01-06T14:09:33.665Z,4.63
2024-01-06T14:12:00.281Z,5.70
2024-01-06T14:14:27.563Z,5.18
2024-01-06T14:16:54.352Z,4.80
2024-01-06T14:19:20.962Z,5.50
2024-01-06T14:21:47.545Z,6.47
2024-01-06T14:24:14.259Z,6.80
2024-01-06T14:26:43.346Z,5.40
2024-01-06T14:29:10.126Z,4.93
2024-01-06T14:31:36.893Z,5.25
2024-01-06T14:34:04.243Z,5.68
2024-01-06T14:36:30.859Z,5.60
2024-01-06T14:38:57.424Z,4.57
2024-01-06T14:41:24.508Z,5.40
2024-01-06T14:43:51.041Z,6.68
2024-01-06T14:46:17.714Z,5.63
2024-01-06T14:48:44.452Z,6.72
2024-01-06T14:51:11.084Z,7.57
2024-01-06T14:53:37.659Z,7.20
2024-01-06T14:56:04.876Z,8.52
2024-01-06T14:58:31.505Z,9.90
2024-01-06T15:00:58.215Z,8.07
2024-01-06T15:03:24.972Z,10.07
2024-01-06T15:05:51.578Z,9.48
2024-01-06T15:08:18.222Z,8.38
2024-01-06T15:10:44.852Z,7.53
2024-01-06T15:13:11.431Z,8.20
2024-01-06T15:15:38.058Z,9.93
2024-01-06T15:18:04.985Z,7.70
2024-01-06T15:20:31.568Z,8.88
2024-01-06T15:22:58.086Z,8.50
2024-01-06T15:25:24.659Z,7.55
2024-01-06T15:27:51.273Z,8.35
2024-01-06T15:30:19.358Z,7.00
2024-01-06T15:32:46.282Z,7.82
2024-01-06T15:35:13.072Z,8.48
2024-01-06T15:37:39.690Z,7.60
2024-01-06T15:40:07.263Z,7.95
2024-01-06T15:42:34.043Z,7.28
2024-01-06T15:45:00.740Z,11.38
2024-01-06T15:47:27.410Z,11.38
2024-01-06T15:49:54.267Z,11.82
2024-01-06T15:52:22.773Z,11.30
2024-01-06T15:54:53.331Z,10.25
2024-01-06T15:57:20.328Z,12.52
2024-01-06T15:59:46.994Z,13.52
2024-01-06T16:02:13.782Z,11.77
2024-01-06T16:04:40.543Z,14.18
2024-01-06T16:07:07.421Z,11.70
2024-01-06T16:09:34.288Z,10.57
2024-01-06T16:12:00.898Z,10.18
2024-01-06T16:14:28.810Z,9.32
2024-01-06T16:16:55.945Z,9.63
2024-01-06T16:19:22.663Z,8.80
2024-01-06T16:21:57.027Z,8.55
2024-01-06T16:24:31.057Z,7.65
2024-01-06T16:26:57.768Z,6.93
2024-01-06T16:29:24.442Z,5.35
2024-01-06T16:31:51.159Z,6.53
2024-01-06T16:34:18.028Z,5.10
2024-01-06T16:36:44.795Z,6.45
2024-01-06T16:39:11.394Z,6.72
2024-01-06T16:41:38.177Z,6.55
2024-01-06T16:44:04.765Z,6.15
2024-01-06T16:46:31.346Z,7.20
2024-01-06T16:48:58.081Z,7.38
2024-01-06T16:51:24.697Z,6.82
2024-01-06T16:53:53.740Z,7.68
2024-01-06T16:56:20.390Z,7.82
2024-01-06T16:58:46.921Z,6.88
2024-01-06T17:01:15.317Z,8.30
2024-01-06T17:03:42.165Z,7.53
2024-01-06T17:06:11.120Z,7.85
2024-01-06T17:08:39.309Z,8.13
2024-01-06T17:11:06.085Z,8.05
2024-01-06T17:13:32.627Z,7.63
2024-01-06T17:15:59.283Z,5.70
2024-01-06T17:18:26.012Z,5.10
2024-01-06T17:20:52.726Z,5.57
2024-01-06T17:23:19.313Z,7.45
2024-01-06T17:25:45.906Z,6.95
2024-01-06T17:28:12.983Z,7.43
2024-01-06T17:30:48.463Z,8.07
2024-01-06T17:33:15.212Z,8.38
2024-01-06T17:35:41.847Z,9.30
2024-01-06T17:38:08.498Z,6.60
2024-01-06T17:40:35.169Z,6.72
2024-01-06T17:43:01.769Z,7.60
2024-01-06T17:45:28.346Z,6.80
2024-01-06T17:47:55.012Z,8.40
2024-01-06T17:50:21.659Z,7.15
2024-01-06T17:52:50.176Z,7.30
2024-01-06T17:55:16.922Z,5.85
2024-01-06T17:57:44.080Z,7.40
2024-01-06T18:00:13.184Z,8.43
2024-01-06T18:02:40.104Z,9.20
2024-01-06T18:05:07.472Z,8.63
2024-01-06T18:07:34.213Z,8.60
2024-01-06T18:10:01.049Z,8.40
2024-01-06T18:12:27.773Z,8.32
2024-01-06T18:14:54.327Z,8.68
2024-01-06T18:17:21.036Z,7.75
2024-01-06T18:19:47.792Z,7.65
2024-01-06T18:22:14.495Z,7.63
2024-01-06T18:24:42.474Z,6.40
2024-01-06T18:27:09.403Z,7.28
2024-01-06T18:29:39.153Z,6.70
2024-01-06T18:32:10.176Z,8.05
2024-01-06T18:34:38.777Z,7.80
2024-01-06T18:37:08.384Z,7.35
2024-01-06T18:39:34.964Z,8.60
2024-01-06T18:42:01.529Z,8.63
2024-01-06T18:44:28.096Z,8.90
2024-01-06T18:46:54.726Z,9.73
2024-01-06T18:49:21.477Z,7.80
2024-01-06T18:51:48.203Z,9.77
2024-01-06T18:54:22.750Z,7.60
2024-01-06T18:56:53.741Z,7.03
2024-01-06T18:59:20.306Z,7.40
2024-01-06T19:01:47.350Z,8.35
2024-01-06T19:04:13.983Z,9.57
2024-01-06T19:06:40.601Z,9.18
2024-01-06T19:09:08.336Z,9.60
2024-01-06T19:11:35.141Z,9.93
2024-01-06T19:14:01.794Z,9.73
2024-01-06T19:16:34.623Z,8.35
2024-01-06T19:19:14.071Z,10.57
2024-01-06T19:21:46.243Z,9.48
2024-01-06T19:24:19.923Z,10.05
2024-01-06T19:26:53.262Z,10.32
2024-01-06T19:29:19.837Z,9.45
2024-01-06T19:31:46.604Z,9.85
2024-01-06T19:34:13.460Z,10.00
2024-01-06T19:36:40.187Z,10.48
2024-01-06T19:39:06.791Z,11.95
2024-01-06T19:41:33.339Z,9.30
2024-01-06T19:44:02.481Z,10.25
2024-01-06T19:46:30.170Z,7.78
2024-01-06T19:49:00.236Z,11.00
2024-01-06T19:51:28.790Z,9.90
2024-01-06T19:53:55.340Z,11.75
2024-01-06T19:56:21.837Z,13.55
2024-01-06T19:58:48.483Z,12.38
2024-01-06T20:01:15.176Z,9.98
2024-01-06T20:03:41.842Z,11.68
2024-01-06T20:06:08.484Z,10.13
2024-01-06T20:08:35.314Z,5.82
2024-01-06T20:11:02.014Z,10.70
2024-01-06T20:13:29.655Z,10.90
2024-01-06T20:15:57.161Z,12.40
2024-01-06T20:18:31.302Z,11.23
2024-01-06T20:20:58.219Z,12.00
2024-01-06T20:23:25.532Z,12.18
2024-01-06T20:25:52.164Z,13.48
2024-01-06T20:28:18.729Z,11.45
2024-01-06T20:30:45.596Z,10.15
2024-01-06T20:33:14.191Z,10.52
2024-01-06T20:35:40.811Z,11.63
2024-01-06T20:38:07.492Z,10.50
2024-01-06T20:40:34.654Z,10.13
2024-01-06T20:43:01.319Z,10.55
2024-01-06T20:45:28.498Z,10.85
2024-01-06T20:47:55.317Z,10.60
2024-01-06T20:50:22.182Z,11.25
2024-01-06T20:52:48.948Z,12.32
2024-01-06T20:55:15.610Z,11.05
2024-01-06T20:57:42.395Z,11.15
2024-01-06T21:00:09.322Z,11.93
2024-01-06T21:02:36.027Z,11.85
2024-01-06T21:05:05.813Z,10.45
2024-01-06T21:07:35.579Z,11.70
2024-01-06T21:10:05.445Z,9.82
2024-01-06T21:12:33.173Z,9.85
2024-01-06T21:15:01.115Z,11.57
2024-01-06T21:17:27.861Z,11.18
2024-01-06T21:19:54.615Z,10.48
2024-01-06T21:22:21.857Z,10.20
2024-01-06T21:24:48.718Z,10.52
2024-01-06T21:27:15.363Z,9.98
2024-01-06T21:29:42.059Z,10.10
2024-01-06T21:32:08.716Z,8.68
2024-01-06T21:34:35.519Z,11.10
2024-01-06T21:37:02.198Z,9.43
2024-01-06T21:39:28.799Z,9.80
2024-01-06T21:41:55.384Z,9.82
2024-01-06T21:44:24.199Z,10.43
2024-01-06T21:46:54.550Z,9.10
2024-01-06T21:49:21.386Z,7.00
2024-01-06T21:51:54.794Z,11.38
2024-01-06T21:54:21.668Z,8.63
2024-01-06T21:56:48.801Z,10.20
2024-01-06T21:59:15.517Z,11.63
2024-01-06T22:01:45.674Z,10.60
2024-01-06T22:04:13.455Z,9.80
2024-01-06T22:06:40.180Z,9.13
2024-01-06T22:09:11.289Z,7.85
2024-01-06T22:11:40.097Z,9.65
2024-01-06T22:14:06.847Z,8.65
2024-01-06T22:16:33.441Z,9.90
2024-01-06T22:19:00.598Z,9.18
2024-01-06T22:21:27.378Z,9.73
2024-01-06T22:23:55.824Z,7.30
2024-01-06T22:26:22.440Z,8.15
2024-01-06T22:28:49.058Z,10.25
2024-01-06T22:31:17.885Z,9.15
2024-01-06T22:33:44.676Z,10.10
2024-01-06T22:36:15.401Z,8.55
2024-01-06T22:38:48.958Z,8.60
2024-01-06T22:41:21.882Z,8.45
2024-01-06T22:43:48.490Z,7.63
2024-01-06T22:46:15.320Z,7.97
2024-01-06T22:48:42.179Z,8.45
2024-01-06T22:51:10.050Z,8.70
2024-01-06T22:53:36.962Z,9.23
2024-01-06T22:56:04.354Z,9.30
2024-01-06T22:58:31.599Z,8.70
2024-01-06T23:00:59.283Z,7.70
2024-01-06T23:03:26.447Z,8.00
2024-01-06T23:05:53.269Z,7.63
2024-01-06T23:08:21.300Z,8.35
2024-01-06T23:10:48.373Z,8.88
2024-01-06T23:13:15.147Z,9.43
2024-01-06T23:15:42.147Z,9.05
2024-01-06T23:18:08.994Z,8.02
2024-01-06T23:20:35.733Z,6.97
2024-01-06T23:23:02.369Z,7.80
2024-01-06T23:25:29.068Z,7.38
2024-01-06T23:27:55.768Z,7.65
2024-01-06T23:30:23.128Z,7.88
2024-01-06T23:32:49.981Z,7.20
2024-01-06T23:35:16.985Z,8.23
2024-01-06T23:37:44.808Z,8.13
2024-01-06T23:40:12.254Z,7.07
2024-01-06T23:42:39.024Z,9.35
2024-01-06T23:45:06.066Z,7.13
2024-01-06T23:47:32.746Z,7.80
2024-01-06T23:49:59.507Z,9.25
2024-01-06T23:52:27.248Z,9.35
2024-01-06T23:54:53.888Z,7.15
2024-01-06T23:57:20.429Z,7.20
2024-01-06T23:59:47.070Z,6.38
